Time;durP1;ratioP1;P1;durP2;ratioP2;P2;SDS_P1;SDS_P2;PMS_P1;PMS_P2;Temp;Humidity;BMP_temperature;BMP_pressure;BME280_temperature;BME280_humidity;BME280_pressure;Samples;Min_cycle;Max_cycle;Signal;HPM_P1;HPM_P2
2022/11/25 00:01:37;;;;;;;145.15;60.40;;;;;;;2.99;75.87;98433.63;5051201;28;20024;-74
2022/11/25 00:04:02;;;;;;;154.52;61.50;;;;;;;3.04;75.53;98435.59;5051158;28;20040;-73
2022/11/25 00:06:30;;;;;;;146.25;56.33;;;;;;;3.08;76.30;98434.00;5050910;28;20029;-73
2022/11/25 00:08:59;;;;;;;152.85;58.90;;;;;;;3.12;75.64;98429.75;5050814;28;20528;-74
2022/11/25 00:11:25;;;;;;;152.95;61.83;;;;;;;3.18;76.00;98436.88;5050280;28;20029;-74
2022/11/25 00:13:50;;;;;;;148.93;61.80;;;;;;;3.21;75.81;98443.72;5051130;28;20390;-73
2022/11/25 00:16:18;;;;;;;163.50;62.85;;;;;;;3.23;75.51;98442.38;5050622;28;20054;-74
2022/11/25 00:18:49;;;;;;;153.35;60.72;;;;;;;3.25;75.51;98448.38;5050748;28;20020;-74
2022/11/25 00:21:18;;;;;;;154.48;62.90;;;;;;;3.31;76.63;98443.03;5050422;28;20033;-74
2022/11/25 00:23:44;;;;;;;151.98;61.55;;;;;;;3.33;76.62;98440.91;5051307;28;20036;-74
2022/11/25 00:26:14;;;;;;;151.73;58.03;;;;;;;3.36;75.66;98445.81;5051604;28;20025;-75
2022/11/25 00:28:42;;;;;;;148.35;60.88;;;;;;;3.39;76.32;98448.84;5051834;28;20473;-74
2022/11/25 00:31:17;;;;;;;145.15;57.20;;;;;;;3.44;76.78;98453.53;5050762;28;20029;-74
2022/11/25 00:33:42;;;;;;;148.45;59.35;;;;;;;3.47;76.23;98441.34;5048494;28;20124;-74
2022/11/25 00:36:32;;;;;;;143.73;57.88;;;;;;;3.48;76.49;98443.81;5050572;28;20104;-74
2022/11/25 00:39:01;;;;;;;150.93;58.70;;;;;;;3.52;76.60;98447.66;5049522;28;20017;-74
2022/11/25 00:46:57;;;;;;;143.82;53.22;;;;;;;3.61;76.73;98455.38;5049430;28;20148;-74
2022/11/25 00:49:23;;;;;;;180.90;61.10;;;;;;;3.63;76.49;98453.22;5050558;28;20041;-74
2022/11/25 00:51:49;;;;;;;164.07;56.45;;;;;;;3.65;75.90;98459.22;5048252;28;20041;-74
2022/11/25 00:54:14;;;;;;;168.57;56.42;;;;;;;3.68;76.64;98451.41;5053963;28;20484;-74
2022/11/25 00:56:40;;;;;;;168.88;56.80;;;;;;;3.71;76.69;98447.38;5050479;28;20032;-74
2022/11/25 00:59:07;;;;;;;174.55;58.70;;;;;;;3.73;76.53;98448.75;5049902;28;20103;-74
2022/11/25 01:01:33;;;;;;;154.10;52.80;;;;;;;3.75;76.89;98461.25;5048028;28;20078;-74
2022/11/25 01:03:58;;;;;;;113.60;43.40;;;;;;;3.77;76.78;98462.66;5050017;28;20025;-74
2022/11/25 01:06:24;;;;;;;113.00;45.00;;;;;;;3.78;76.88;98458.88;5049614;28;20029;-74
2022/11/25 01:08:49;;;;;;;140.25;50.20;;;;;;;3.77;76.39;98457.22;5049990;28;20772;-75
2022/11/25 01:11:18;;;;;;;149.20;52.00;;;;;;;3.78;76.09;98458.03;5047240;28;20044;-74
2022/11/25 01:13:44;;;;;;;152.35;53.58;;;;;;;3.80;76.69;98459.44;5047732;28;20044;-75
2022/11/25 01:16:12;;;;;;;161.77;55.97;;;;;;;3.81;76.19;98461.09;5051588;28;20029;-75
2022/11/25 01:18:37;;;;;;;151.93;54.28;;;;;;;3.81;76.91;98460.25;5051054;28;20033;-75
2022/11/25 01:21:07;;;;;;;160.57;55.72;;;;;;;3.81;76.62;98466.50;5050993;28;20029;-75
2022/11/25 01:23:33;;;;;;;168.27;56.90;;;;;;;3.81;76.55;98458.38;5045885;28;20037;-75
2022/11/25 01:26:07;;;;;;;173.80;67.95;;;;;;;3.82;76.78;98454.59;5051773;28;20393;-75
2022/11/25 01:28:33;;;;;;;191.00;73.35;;;;;;;3.85;76.90;98459.50;5050134;28;20455;-74
2022/11/25 01:31:03;;;;;;;215.15;70.75;;;;;;;3.85;76.90;98450.53;5049836;28;20100;-75
2022/11/25 01:33:33;;;;;;;247.02;74.00;;;;;;;3.86;77.13;98447.59;5045289;28;20115;-75
2022/11/25 01:36:07;;;;;;;242.63;74.78;;;;;;;3.87;76.48;98449.19;5043709;28;20033;-74
2022/11/25 01:38:33;;;;;;;255.20;75.40;;;;;;;3.90;76.96;98456.03;5051505;28;20037;-75
2022/11/25 01:40:59;;;;;;;185.73;59.63;;;;;;;3.90;76.56;98449.75;5051299;28;20083;-76
2022/11/25 01:43:25;;;;;;;217.85;66.15;;;;;;;3.91;76.84;98452.25;5050391;28;20040;-75
2022/11/25 01:45:52;;;;;;;160.13;52.50;;;;;;;3.91;77.27;98451.41;5050471;28;20032;-75
2022/11/25 01:48:26;;;;;;;111.78;42.50;;;;;;;3.93;76.89;98455.53;5050039;28;20024;-75
2022/11/25 01:50:52;;;;;;;133.88;48.75;;;;;;;3.94;77.34;98451.75;5050089;28;20049;-76
2022/11/25 01:53:20;;;;;;;120.80;45.47;;;;;;;3.96;76.83;98459.63;5050041;28;20029;-76
2022/11/25 01:55:57;;;;;;;96.65;40.83;;;;;;;3.95;77.12;98458.81;5048030;28;20029;-75
2022/11/25 01:58:33;;;;;;;88.47;38.00;;;;;;;3.98;76.40;98455.59;5049658;28;20489;-75
2022/11/25 02:00:59;;;;;;;80.60;35.65;;;;;;;4.01;76.84;98463.22;5049348;28;20021;-75
2022/11/25 02:03:34;;;;;;;83.22;35.65;;;;;;;4.02;77.12;98472.19;5050867;28;20035;-75
2022/11/25 02:06:11;;;;;;;78.70;34.88;;;;;;;4.05;76.94;98463.53;5052212;28;20476;-75
2022/11/25 02:08:38;;;;;;;75.85;35.90;;;;;;;4.09;76.63;98458.41;5046424;28;20121;-75
2022/11/25 02:11:04;;;;;;;77.95;35.22;;;;;;;4.09;76.43;98461.94;5049471;28;20025;-75
2022/11/25 02:13:30;;;;;;;79.65;35.65;;;;;;;4.11;76.69;98462.53;5050354;28;20032;-75
2022/11/25 02:15:56;;;;;;;81.95;35.30;;;;;;;4.13;76.81;98467.69;5050133;28;20052;-75
2022/11/25 02:18:21;;;;;;;83.35;36.03;;;;;;;4.14;77.13;98463.91;5044196;28;20063;-75
2022/11/25 02:20:47;;;;;;;78.55;35.40;;;;;;;4.16;76.41;98464.47;5041898;28;20031;-75
2022/11/25 02:23:33;;;;;;;79.25;34.83;;;;;;;4.15;77.13;98463.66;5043368;28;20041;-75
2022/11/25 02:25:58;;;;;;;79.10;33.72;;;;;;;4.19;76.99;98461.25;5037153;28;20057;-75
2022/11/25 02:28:28;;;;;;;74.47;33.70;;;;;;;4.22;76.86;98468.06;5035721;28;20052;-74
2022/11/25 02:30:54;;;;;;;76.32;34.17;;;;;;;4.25;76.44;98470.28;5034258;28;20025;-74
2022/11/25 02:33:20;;;;;;;75.63;34.55;;;;;;;4.27;77.02;98468.94;5034964;28;20052;-75
2022/11/25 02:35:58;;;;;;;74.85;34.03;;;;;;;4.27;76.74;98468.13;5041318;28;20377;-75
2022/11/25 02:38:32;;;;;;;74.78;35.33;;;;;;;4.26;76.78;98467.28;5037604;28;20013;-75
2022/11/25 02:41:10;;;;;;;75.70;35.85;;;;;;;4.28;76.32;98472.50;5032874;28;20486;-75
2022/11/25 02:43:35;;;;;;;76.47;35.38;;;;;;;4.30;76.62;98475.75;5036917;28;20566;-75
2022/11/25 02:46:09;;;;;;;78.53;35.95;;;;;;;4.30;76.54;98465.72;5035458;28;20021;-75
2022/11/25 02:48:37;;;;;;;78.32;36.95;;;;;;;4.33;76.75;98472.53;5039500;28;20029;-75
2022/11/25 02:51:03;;;;;;;77.70;35.45;;;;;;;4.34;77.28;98465.22;5041535;28;20042;-75
2022/11/25 02:53:28;;;;;;;77.53;36.55;;;;;;;4.36;77.20;98473.91;5033264;28;20132;-75
2022/11/25 02:55:54;;;;;;;80.03;35.65;;;;;;;4.36;76.91;98479.34;5038008;28;20513;-75
2022/11/25 02:58:20;;;;;;;81.47;36.30;;;;;;;4.36;77.17;98480.16;5040075;28;20097;-75
2022/11/25 03:00:46;;;;;;;82.28;35.63;;;;;;;4.36;77.05;98484.78;5033922;28;20029;-75
2022/11/25 03:03:15;;;;;;;73.07;34.10;;;;;;;4.36;77.04;98479.34;5051245;28;20029;-75
2022/11/25 03:05:40;;;;;;;70.38;34.33;;;;;;;4.36;76.76;98482.06;5039042;28;20079;-76
2022/11/25 03:08:07;;;;;;;71.55;33.15;;;;;;;4.36;77.14;98482.88;5036867;28;20056;-75
2022/11/25 03:10:32;;;;;;;74.22;33.47;;;;;;;4.38;76.71;98485.34;5033285;28;20037;-75
2022/11/25 03:12:57;;;;;;;69.95;32.08;;;;;;;4.39;77.15;98482.38;5032459;28;20028;-75
2022/11/25 03:15:24;;;;;;;72.97;34.25;;;;;;;4.41;77.14;98485.66;5034459;28;20029;-75
2022/11/25 03:17:50;;;;;;;68.53;33.58;;;;;;;4.42;76.66;98479.16;5041552;28;20070;-75
2022/11/25 03:20:15;;;;;;;74.38;33.40;;;;;;;4.45;76.73;98488.69;5039434;28;20057;-75
2022/11/25 03:22:42;;;;;;;71.40;33.03;;;;;;;4.49;76.62;98486.28;5047405;28;20065;-75
2022/11/25 03:25:08;;;;;;;73.55;32.78;;;;;;;4.50;76.83;98485.19;5034997;28;20026;-75
2022/11/25 03:27:35;;;;;;;75.53;35.22;;;;;;;4.50;77.39;98496.88;5040914;28;20112;-76
2022/11/25 03:30:00;;;;;;;73.32;33.47;;;;;;;4.47;77.19;98495.50;5036224;28;20026;-75
2022/11/25 03:32:26;;;;;;;72.05;33.58;;;;;;;4.45;76.88;98497.66;5039469;28;20443;-76
2022/11/25 03:34:51;;;;;;;73.15;33.67;;;;;;;4.46;76.39;98490.34;5037988;28;20048;-74
2022/11/25 03:37:18;;;;;;;71.75;33.63;;;;;;;4.47;77.00;98494.69;5042232;28;20029;-77
2022/11/25 03:39:43;;;;;;;70.60;32.70;;;;;;;4.47;76.82;98491.97;5036457;28;20033;-75
2022/11/25 03:42:09;;;;;;;67.63;31.75;;;;;;;4.49;77.13;98491.72;5052082;28;20504;-75
2022/11/25 03:44:34;;;;;;;66.72;30.60;;;;;;;4.51;76.95;98495.78;5051701;28;20431;-75
2022/11/25 03:46:59;;;;;;;70.32;32.03;;;;;;;4.52;76.85;98494.72;5052970;28;20025;-75
2022/11/25 03:49:25;;;;;;;63.08;30.25;;;;;;;4.52;76.73;98493.91;5047258;28;20032;-75
2022/11/25 03:51:50;;;;;;;69.95;31.08;;;;;;;4.52;77.02;98493.91;5048123;28;20048;-75
2022/11/25 03:54:15;;;;;;;71.07;30.60;;;;;;;4.52;77.03;98496.63;5050441;28;20036;-75
2022/11/25 03:56:41;;;;;;;64.18;30.30;;;;;;;4.52;76.72;98496.63;5048782;28;20033;-75
2022/11/25 03:59:06;;;;;;;64.95;30.95;;;;;;;4.54;76.84;98503.44;5050140;28;20035;-75
2022/11/25 04:01:32;;;;;;;67.47;30.95;;;;;;;4.55;76.36;98490.69;5052373;28;20388;-75
2022/11/25 04:03:57;;;;;;;66.47;31.98;;;;;;;4.57;77.08;98500.22;5050895;28;20075;-75
2022/11/25 04:06:22;;;;;;;66.00;32.58;;;;;;;4.58;77.31;98499.13;5051266;28;20501;-75
2022/11/25 04:08:49;;;;;;;71.47;32.55;;;;;;;4.60;77.04;98496.19;5051449;28;20025;-75
2022/11/25 04:11:14;;;;;;;82.15;42.55;;;;;;;4.56;76.40;98495.84;5050205;28;20108;-75
2022/11/25 04:13:40;;;;;;;71.18;33.97;;;;;;;4.57;76.53;98500.22;5053292;28;20039;-75
2022/11/25 04:16:05;;;;;;;71.03;34.22;;;;;;;4.60;77.22;98496.19;5050518;28;20112;-75
2022/11/25 04:18:30;;;;;;;72.85;35.05;;;;;;;4.62;77.17;98496.75;5051251;28;20042;-75
2022/11/25 04:20:56;;;;;;;69.68;33.80;;;;;;;4.63;77.21;98501.09;5052302;28;20037;-75
2022/11/25 04:23:22;;;;;;;71.90;33.65;;;;;;;4.65;77.06;98506.25;5051025;28;20083;-75
2022/11/25 04:25:49;;;;;;;77.75;35.70;;;;;;;4.66;77.24;98505.19;5051786;28;20036;-74
2022/11/25 04:28:15;;;;;;;81.15;41.25;;;;;;;4.65;76.30;98498.94;5049431;28;20036;-75
2022/11/25 04:30:41;;;;;;;83.85;38.80;;;;;;;4.64;76.64;98504.63;5048638;28;20025;-75
2022/11/25 04:33:06;;;;;;;78.18;37.95;;;;;;;4.63;76.92;98501.09;5049488;28;20021;-74
2022/11/25 04:35:32;;;;;;;82.30;41.67;;;;;;;4.65;76.45;98504.38;5050947;28;20029;-75
2022/11/25 04:37:57;;;;;;;76.18;38.83;;;;;;;4.67;76.64;98506.81;5049763;28;20120;-75
2022/11/25 04:40:23;;;;;;;66.18;33.08;;;;;;;4.68;77.19;98509.31;5049689;28;20077;-75
2022/11/25 04:42:49;;;;;;;70.57;33.88;;;;;;;4.69;76.91;98516.34;5053626;28;20016;-75
2022/11/25 04:45:16;;;;;;;71.18;32.88;;;;;;;4.70;77.19;98523.44;5052576;28;20508;-75
2022/11/25 04:47:42;;;;;;;72.47;32.78;;;;;;;4.69;76.87;98521.78;5053806;28;20381;-74
2022/11/25 04:50:13;;;;;;;71.05;33.22;;;;;;;4.69;76.49;98520.97;5050730;28;20516;-75
2022/11/25 04:52:39;;;;;;;71.72;34.08;;;;;;;4.69;76.44;98529.13;5051554;28;20025;-75
2022/11/25 04:55:05;;;;;;;72.68;34.45;;;;;;;4.68;76.60;98524.78;5051498;28;20048;-75
2022/11/25 04:57:30;;;;;;;75.72;35.30;;;;;;;4.66;76.52;98527.75;5051115;28;20036;-75
2022/11/25 04:59:55;;;;;;;80.20;36.88;;;;;;;4.66;76.99;98527.75;5050938;28;20025;-75
2022/11/25 05:02:23;;;;;;;80.28;38.00;;;;;;;4.67;76.63;98528.56;5050317;28;20075;-75
2022/11/25 05:04:50;;;;;;;82.07;37.85;;;;;;;4.64;76.79;98535.34;5049645;28;20025;-74
2022/11/25 05:07:18;;;;;;;76.55;38.55;;;;;;;4.62;76.89;98532.06;5046455;28;20524;-75
2022/11/25 05:09:44;;;;;;;87.78;42.00;;;;;;;4.62;76.84;98545.63;5050671;28;20033;-75
2022/11/25 05:12:13;;;;;;;84.35;42.45;;;;;;;4.59;76.52;98540.72;5050762;28;20086;-75
2022/11/25 05:14:38;;;;;;;88.72;42.05;;;;;;;4.62;77.07;98548.34;5050003;28;20500;-74
2022/11/25 05:17:05;;;;;;;79.93;37.50;;;;;;;4.59;76.58;98551.56;5049787;28;20037;-75
2022/11/25 05:19:31;;;;;;;84.40;39.63;;;;;;;4.58;76.96;98547.22;5049502;28;20029;-75
2022/11/25 05:21:57;;;;;;;86.75;40.40;;;;;;;4.59;76.85;98544.25;5049460;28;20028;-75
2022/11/25 05:24:24;;;;;;;83.45;39.72;;;;;;;4.59;77.05;98557.81;5051584;28;20083;-75
2022/11/25 05:26:50;;;;;;;81.93;38.15;;;;;;;4.58;76.66;98555.38;5050853;28;20029;-75
2022/11/25 05:29:15;;;;;;;80.38;37.92;;;;;;;4.60;76.61;98555.94;5050760;28;20029;-75
2022/11/25 05:31:40;;;;;;;77.90;38.10;;;;;;;4.59;77.08;98554.28;5049030;28;20029;-75
2022/11/25 05:34:06;;;;;;;73.80;35.30;;;;;;;4.60;76.73;98558.66;5050380;28;20035;-75
2022/11/25 05:36:31;;;;;;;82.28;38.47;;;;;;;4.63;76.68;98560.88;5051327;28;20466;-74
2022/11/25 05:38:58;;;;;;;86.97;39.55;;;;;;;4.62;77.13;98567.38;5050030;28;20508;-75
2022/11/25 05:41:24;;;;;;;88.00;43.08;;;;;;;4.62;77.06;98568.19;5048197;28;20032;-75
2022/11/25 05:43:50;;;;;;;85.20;40.40;;;;;;;4.60;76.55;98567.59;5048278;28;20025;-74
2022/11/25 05:46:15;;;;;;;82.25;39.65;;;;;;;4.61;76.48;98568.44;5048988;28;20036;-74
2022/11/25 05:48:41;;;;;;;77.15;36.08;;;;;;;4.61;77.24;98565.72;5047000;28;20497;-75
2022/11/25 05:51:08;;;;;;;87.18;38.63;;;;;;;4.63;76.65;98569.00;5049178;28;20045;-74
2022/11/25 05:53:34;;;;;;;82.85;41.63;;;;;;;4.60;76.40;98569.53;5047013;28;20041;-74
2022/11/25 05:56:02;;;;;;;84.88;40.13;;;;;;;4.58;76.43;98574.38;5049604;28;20033;-74
2022/11/25 05:58:29;;;;;;;87.03;40.85;;;;;;;4.58;76.40;98560.81;5049322;28;20427;-74
2022/11/25 06:00:57;;;;;;;83.90;39.80;;;;;;;4.57;76.50;98572.75;5047715;28;20111;-74
2022/11/25 06:03:25;;;;;;;79.13;37.83;;;;;;;4.56;76.46;98574.63;5050085;28;20040;-74
2022/11/25 06:05:51;;;;;;;86.82;39.83;;;;;;;4.57;76.59;98572.75;5049449;28;20017;-74
2022/11/25 06:08:16;;;;;;;90.28;42.95;;;;;;;4.59;77.37;98573.31;5042280;28;20044;-74
2022/11/25 06:10:43;;;;;;;92.30;42.42;;;;;;;4.57;76.48;98572.75;5044558;28;20087;-73
2022/11/25 06:13:09;;;;;;;80.88;38.78;;;;;;;4.57;77.00;98576.25;5053859;28;20024;-74
2022/11/25 06:15:40;;;;;;;87.93;41.50;;;;;;;4.59;76.69;98584.19;5048273;28;20021;-75
2022/11/25 06:18:05;;;;;;;91.38;41.85;;;;;;;4.62;77.20;98589.09;5048541;28;20057;-75
2022/11/25 06:20:30;;;;;;;89.40;39.55;;;;;;;4.63;76.55;98588.03;5047256;28;20500;-74
2022/11/25 06:22:59;;;;;;;75.43;38.00;;;;;;;4.64;76.61;98586.97;5046783;28;20040;-74
2022/11/25 06:25:25;;;;;;;82.72;37.33;;;;;;;4.66;76.88;98586.69;5046348;28;20029;-74
2022/11/25 06:27:50;;;;;;;80.45;38.10;;;;;;;4.67;77.14;98583.72;5046441;28;20056;-74
2022/11/25 06:30:16;;;;;;;77.35;38.72;;;;;;;4.69;77.20;98592.41;5046849;28;20067;-74
2022/11/25 06:32:42;;;;;;;88.13;40.83;;;;;;;4.69;76.58;98592.41;5038904;28;20575;-74
2022/11/25 06:35:07;;;;;;;88.18;41.08;;;;;;;4.71;76.85;98592.19;5046838;28;20045;-75
2022/11/25 06:37:33;;;;;;;90.15;40.95;;;;;;;4.71;77.04;98587.56;5047611;28;20024;-74
2022/11/25 06:39:58;;;;;;;82.47;40.13;;;;;;;4.72;77.33;98594.63;5045198;28;20535;-74
2022/11/25 06:42:24;;;;;;;83.15;39.90;;;;;;;4.74;76.91;98592.47;5050600;28;20021;-73
2022/11/25 06:44:49;;;;;;;86.45;39.38;;;;;;;4.76;77.11;98595.78;5050630;28;20472;-74
2022/11/25 06:47:15;;;;;;;82.50;39.20;;;;;;;4.78;77.10;98595.53;5049739;28;20025;-74
2022/11/25 06:49:40;;;;;;;81.65;37.88;;;;;;;4.78;76.60;98598.25;5051924;28;20028;-73
2022/11/25 06:52:06;;;;;;;77.28;37.75;;;;;;;4.82;76.71;98601.25;5053214;28;20525;-71
2022/11/25 06:54:31;;;;;;;70.78;35.70;;;;;;;4.82;76.44;98610.25;5052104;28;20033;-71
2022/11/25 06:56:57;;;;;;;77.50;37.58;;;;;;;4.82;77.03;98603.97;5051834;28;20029;-71
2022/11/25 06:59:22;;;;;;;82.75;38.88;;;;;;;4.79;77.10;98613.47;5053276;28;20024;-70
2022/11/25 07:01:48;;;;;;;73.45;34.35;;;;;;;4.76;77.05;98613.97;5055806;28;20028;-70
2022/11/25 07:04:13;;;;;;;69.05;33.30;;;;;;;4.72;76.69;98619.09;5054647;28;20025;-71
2022/11/25 07:06:38;;;;;;;68.53;32.72;;;;;;;4.69;76.53;98613.34;5052891;28;20440;-70
2022/11/25 07:09:04;;;;;;;71.35;33.65;;;;;;;4.67;76.85;98612.78;5053330;28;20376;-72
2022/11/25 07:11:36;;;;;;;78.63;37.72;;;;;;;4.62;76.65;98617.06;5052969;28;20021;-72
2022/11/25 07:14:09;;;;;;;71.55;35.40;;;;;;;4.60;76.83;98618.41;5049531;28;20437;-71
2022/11/25 07:16:37;;;;;;;73.10;35.53;;;;;;;4.58;77.08;98618.66;5050031;28;20044;-71
2022/11/25 07:19:02;;;;;;;73.13;37.67;;;;;;;4.56;76.66;98615.38;5053526;28;20135;-71
2022/11/25 07:21:29;;;;;;;73.43;35.95;;;;;;;4.55;77.11;98621.88;5051422;28;20125;-71
2022/11/25 07:23:57;;;;;;;65.57;34.42;;;;;;;4.56;77.21;98622.72;5051278;28;20017;-71
2022/11/25 07:26:25;;;;;;;68.30;35.38;;;;;;;4.58;77.19;98623.28;5051556;28;20029;-72
2022/11/25 07:28:52;;;;;;;62.35;32.70;;;;;;;4.60;77.36;98627.38;5052561;28;20025;-71
2022/11/25 07:31:22;;;;;;;61.47;32.28;;;;;;;4.62;77.21;98633.38;5052976;28;20039;-71
2022/11/25 07:33:51;;;;;;;61.00;30.05;;;;;;;4.61;77.17;98629.03;5052530;28;20784;-71
2022/11/25 07:36:16;;;;;;;59.73;30.30;;;;;;;4.63;77.21;98631.50;5052662;28;20071;-71
2022/11/25 07:38:42;;;;;;;57.17;29.20;;;;;;;4.62;76.79;98630.66;5051129;28;20489;-71
2022/11/25 07:41:13;;;;;;;58.42;28.15;;;;;;;4.65;77.30;98623.91;5051169;28;20025;-71
2022/11/25 07:43:39;;;;;;;61.97;29.95;;;;;;;4.69;77.24;98635.09;5052520;28;20033;-71
2022/11/25 07:46:17;;;;;;;59.95;29.63;;;;;;;4.66;76.92;98635.59;5050775;28;20039;-69
2022/11/25 07:48:43;;;;;;;72.95;37.65;;;;;;;4.63;77.04;98631.50;5050450;28;20025;-70
2022/11/25 07:51:24;;;;;;;59.83;31.75;;;;;;;4.60;77.32;98638.25;5046888;28;20521;-71
2022/11/25 07:53:52;;;;;;;69.00;33.55;;;;;;;4.60;77.26;98632.81;5050643;28;20037;-69
2022/11/25 07:56:17;;;;;;;63.65;31.00;;;;;;;4.60;77.04;98637.44;5048602;28;20064;-72
2022/11/25 07:58:44;;;;;;;60.00;29.10;;;;;;;4.62;77.07;98640.72;5049618;28;20089;-71
2022/11/25 08:01:10;;;;;;;69.63;36.17;;;;;;;4.66;76.70;98646.47;5048809;28;20087;-72
2022/11/25 08:03:38;;;;;;;72.68;38.28;;;;;;;4.65;77.56;98640.22;5046450;28;20036;-72
2022/11/25 08:06:09;;;;;;;74.78;41.80;;;;;;;4.66;77.28;98644.56;5049754;28;20064;-70
2022/11/25 08:08:36;;;;;;;65.28;35.00;;;;;;;4.69;77.74;98649.47;5053624;28;20035;-71
2022/11/25 08:11:11;;;;;;;74.22;42.05;;;;;;;4.68;77.12;98647.88;5051406;28;20087;-70
2022/11/25 08:13:37;;;;;;;60.40;31.10;;;;;;;4.69;77.14;98654.09;5050778;28;20029;-70
2022/11/25 08:16:02;;;;;;;67.55;33.83;;;;;;;4.68;77.20;98650.59;5048910;28;20477;-72
2022/11/25 08:18:29;;;;;;;62.10;29.38;;;;;;;4.68;76.99;98642.44;5045856;28;20063;-70
2022/11/25 08:21:03;;;;;;;64.18;30.95;;;;;;;4.72;77.02;98653.59;5050348;28;20032;-70
2022/11/25 08:23:30;;;;;;;59.88;29.33;;;;;;;4.72;77.51;98654.41;5049281;28;20068;-75
2022/11/25 08:25:55;;;;;;;61.38;32.47;;;;;;;4.69;76.97;98652.19;5049507;28;20029;-70
2022/11/25 08:28:21;;;;;;;63.33;34.60;;;;;;;4.73;77.26;98660.69;5052809;28;20068;-72
2022/11/25 08:30:47;;;;;;;64.85;33.30;;;;;;;4.76;77.81;98657.47;5049690;28;20025;-69
2022/11/25 08:33:12;;;;;;;61.20;31.17;;;;;;;4.80;77.47;98655.88;5054801;28;20043;-69
2022/11/25 08:35:38;;;;;;;59.13;31.95;;;;;;;4.83;77.12;98659.97;5051565;28;20032;-70
2022/11/25 08:38:04;;;;;;;59.28;32.80;;;;;;;4.90;77.05;98658.69;5052012;28;20098;-71
2022/11/25 08:40:31;;;;;;;59.63;31.25;;;;;;;4.93;77.48;98660.09;5049194;28;20021;-72
2022/11/25 08:42:57;;;;;;;62.00;31.75;;;;;;;4.94;77.15;98658.19;5054229;28;20033;-72
2022/11/25 08:45:22;;;;;;;59.58;33.50;;;;;;;4.97;77.06;98658.53;5050692;28;20505;-70
2022/11/25 08:47:47;;;;;;;64.15;34.60;;;;;;;4.99;77.23;98655.53;5049763;28;20502;-72
2022/11/25 08:50:13;;;;;;;64.32;34.88;;;;;;;5.00;77.41;98659.91;5051329;28;20052;-70
2022/11/25 08:52:39;;;;;;;64.32;38.60;;;;;;;5.03;77.05;98662.09;5050434;28;20036;-70
2022/11/25 08:55:05;;;;;;;61.97;34.65;;;;;;;5.05;77.09;98668.13;5052065;28;20128;-74
2022/11/25 08:57:30;;;;;;;62.35;32.30;;;;;;;5.07;77.32;98660.53;5049902;28;20633;-73
2022/11/25 08:59:55;;;;;;;64.72;32.92;;;;;;;5.06;76.87;98664.31;5051548;28;20473;-71
2022/11/25 09:02:21;;;;;;;66.95;33.17;;;;;;;5.08;76.89;98673.03;5055940;28;20056;-73
2022/11/25 09:04:46;;;;;;;66.63;34.10;;;;;;;5.10;77.04;98675.50;5049745;28;20377;-71
2022/11/25 09:07:12;;;;;;;59.30;32.47;;;;;;;5.12;77.41;98679.63;5050310;28;20033;-72
2022/11/25 09:09:37;;;;;;;61.72;32.58;;;;;;;5.13;77.64;98681.25;5051240;28;20035;-72
2022/11/25 09:12:03;;;;;;;63.63;35.65;;;;;;;5.13;76.93;98677.69;5050654;28;20036;-72
2022/11/25 09:14:28;;;;;;;65.65;35.60;;;;;;;5.16;77.15;98679.91;5048290;28;20040;-73
2022/11/25 09:16:55;;;;;;;66.25;36.00;;;;;;;5.19;77.08;98673.97;5049209;28;20036;-73
2022/11/25 09:19:21;;;;;;;64.72;33.22;;;;;;;5.24;77.53;98678.66;5049650;28;20044;-73
2022/11/25 09:21:47;;;;;;;52.80;28.85;;;;;;;5.28;77.52;98683.31;5046752;28;20377;-73
2022/11/25 09:24:12;;;;;;;54.53;29.45;;;;;;;5.32;77.41;98687.19;5046787;28;20033;-74
2022/11/25 09:26:39;;;;;;;61.33;32.60;;;;;;;5.31;77.43;98693.69;5050682;28;20037;-72
2022/11/25 09:29:06;;;;;;;61.35;29.88;;;;;;;5.32;76.99;98680.91;5049022;28;20116;-72
2022/11/25 09:31:32;;;;;;;71.90;38.28;;;;;;;5.33;77.10;98680.66;5051856;28;20029;-73
2022/11/25 09:33:58;;;;;;;66.28;36.25;;;;;;;5.35;77.38;98680.38;5051140;28;20135;-73
2022/11/25 09:36:23;;;;;;;58.67;31.40;;;;;;;5.39;77.08;98681.53;5050657;28;20541;-73
2022/11/25 09:38:50;;;;;;;60.75;28.65;;;;;;;5.42;77.13;98681.00;5046584;28;20033;-71
2022/11/25 09:48:05;;;;;;;61.28;30.83;;;;;;;5.62;77.30;98674.13;5048621;28;20048;-72
2022/11/25 09:50:52;;;;;;;58.10;32.38;;;;;;;5.68;77.25;98670.38;5048713;28;20136;-72
2022/11/25 09:53:34;;;;;;;59.88;29.52;;;;;;;5.72;77.47;98676.91;5050115;28;20478;-72
2022/11/25 09:56:11;;;;;;;52.70;27.55;;;;;;;5.78;77.21;98669.63;5051960;28;20389;-72
2022/11/25 09:58:43;;;;;;;55.60;27.98;;;;;;;5.85;77.07;98670.25;5048724;28;20460;-72
2022/11/25 10:01:19;;;;;;;58.88;29.45;;;;;;;5.89;76.84;98679.53;5051154;28;20021;-71
2022/11/25 10:03:47;;;;;;;57.83;27.20;;;;;;;5.92;77.16;98676.28;5050701;28;20044;-72
2022/11/25 10:06:23;;;;;;;59.55;28.73;;;;;;;5.98;77.34;98679.88;5051025;28;20087;-70
2022/11/25 10:09:10;;;;;;;60.47;31.52;;;;;;;6.06;77.34;98684.88;5050330;28;20102;-72
2022/11/25 10:11:49;;;;;;;59.70;30.85;;;;;;;6.11;77.39;98686.81;5043979;28;20067;-69
2022/11/25 10:14:34;;;;;;;54.08;28.77;;;;;;;6.18;77.19;98679.22;5048319;28;20044;-71
2022/11/25 10:17:12;;;;;;;57.53;27.73;;;;;;;6.27;77.36;98678.75;5048677;28;20112;-71
2022/11/25 10:19:59;;;;;;;64.65;30.00;;;;;;;6.30;77.00;98679.03;5048523;28;20025;-71
2022/11/25 10:22:31;;;;;;;55.53;26.17;;;;;;;6.31;77.28;98677.94;5049626;28;20103;-70
2022/11/25 10:25:11;;;;;;;52.78;27.05;;;;;;;6.37;76.88;98682.34;5048999;28;20024;-73
2022/11/25 10:27:57;;;;;;;48.05;24.25;;;;;;;6.43;77.21;98682.38;5049984;28;20021;-73
2022/11/25 10:30:26;;;;;;;51.15;24.95;;;;;;;6.50;76.65;98683.78;5049517;28;20036;-73
2022/11/25 10:33:22;;;;;;;44.53;23.25;;;;;;;6.54;76.85;98684.91;5050095;28;20036;-73
2022/11/25 10:36:07;;;;;;;48.00;24.88;;;;;;;6.60;76.87;98685.72;5046525;28;20060;-73
2022/11/25 10:38:43;;;;;;;68.00;36.03;;;;;;;6.66;77.22;98684.69;5049488;28;20086;-74
2022/11/25 10:41:15;;;;;;;66.63;34.88;;;;;;;6.69;76.72;98686.06;5045423;28;20025;-74
2022/11/25 10:43:42;;;;;;;54.75;27.92;;;;;;;6.73;76.67;98686.34;5049002;28;20104;-74
2022/11/25 10:46:20;;;;;;;48.28;24.58;;;;;;;6.74;76.65;98679.81;5049964;28;20035;-74
2022/11/25 10:49:13;;;;;;;68.32;33.45;;;;;;;6.77;76.83;98690.19;5049556;28;20435;-74
2022/11/25 10:51:41;;;;;;;60.17;31.20;;;;;;;6.81;75.97;98683.13;5049135;28;20059;-73
2022/11/25 10:54:14;;;;;;;54.30;28.77;;;;;;;6.82;76.28;98679.31;5049438;28;20127;-73
2022/11/25 10:56:55;;;;;;;66.88;36.10;;;;;;;6.86;76.43;98680.44;5049614;28;20025;-73
2022/11/25 10:59:32;;;;;;;80.43;44.35;;;;;;;6.86;76.18;98685.88;5049590;28;20543;-73
2022/11/25 11:02:22;;;;;;;88.35;46.65;;;;;;;6.86;76.33;98685.88;5049367;28;20094;-72
2022/11/25 11:05:10;;;;;;;74.97;41.80;;;;;;;6.90;76.24;98681.53;5049159;28;20134;-72
2022/11/25 11:07:39;;;;;;;68.68;37.85;;;;;;;6.94;76.17;98690.00;5043156;28;20036;-73
2022/11/25 11:10:14;;;;;;;59.88;29.42;;;;;;;6.95;76.02;98686.19;5049666;28;20025;-73
2022/11/25 11:13:01;;;;;;;54.75;28.17;;;;;;;6.97;75.87;98686.72;5048566;28;20612;-73
2022/11/25 11:15:29;;;;;;;64.68;29.05;;;;;;;7.03;75.66;98679.38;5048208;28;20021;-74
2022/11/25 11:17:56;;;;;;;56.42;28.50;;;;;;;7.01;75.97;98674.19;5045761;28;20120;-73
2022/11/25 11:20:28;;;;;;;54.53;30.20;;;;;;;7.02;75.87;98677.72;5049737;28;20032;-73
2022/11/25 11:23:08;;;;;;;53.80;29.10;;;;;;;7.06;75.89;98685.13;5047660;28;20025;-73
2022/11/25 11:25:38;;;;;;;55.63;29.77;;;;;;;7.14;75.62;98681.88;5049318;28;20047;-73
2022/11/25 11:28:36;;;;;;;63.72;33.80;;;;;;;7.17;76.29;98685.16;5049011;28;20029;-74
2022/11/25 11:31:16;;;;;;;58.72;29.60;;;;;;;7.23;75.81;98689.53;5049322;28;20021;-74
2022/11/25 11:34:19;;;;;;;52.47;27.63;;;;;;;7.30;76.22;98684.66;5049151;28;20064;-72
2022/11/25 11:36:50;;;;;;;56.35;30.33;;;;;;;7.41;76.21;98689.03;5052095;28;20029;-73
2022/11/25 11:39:36;;;;;;;81.88;38.25;;;;;;;7.48;75.65;98682.50;5052688;28;20029;-73
2022/11/25 11:42:20;;;;;;;94.25;43.15;;;;;;;7.51;75.45;98673.78;5052345;28;20120;-73
2022/11/25 11:45:01;;;;;;;93.75;41.25;;;;;;;7.56;75.92;98671.03;5050822;28;20517;-72